Baraboo, WI

9:52 AM CDT on October 20, 2017 (GMT -0500)
Baraboo Wisconsin Dells

Weather History for KDLL - January, 2014

Change the Weather History Date:

Sunday, January 12, 2014

  Actual Average Record
Temperature  
Mean Temperature 30 °F -  
Max Temperature 40 °F 24 °F 48 °F (2006)
Min Temperature 21 °F 3 °F -26 °F (1974)
Degree Days  
Heating Degree Days 34    
Moisture  
Dew Point 26 °F    
Average Humidity 77    
Maximum Humidity 96    
Minimum Humidity 57    
Precipitation  
Precipitation 0.00 in - - ()
Sea Level Pressure  
Sea Level Pressure 29.58 in    
Wind  
Wind Speed 11 mph (SSW)    
Max Wind Speed 22 mph    
Max Gust Speed 26 mph    
Visibility 10 miles    
Events      
Averages and records for this station are not official NWS values.
T = Trace of Precipitation, MM = Missing Value Source: NWS Daily Summary

Daily Weather History Graph

Daily Weather History Graph

Search for Another Location

Airport or City:

Trip Planner

Search our weather history database for the weather conditions in past years. The results will help you decide how hot, cold, wet, or windy it might be!

Date:

Astronomy

Jan. 12, 2014 Rise Set
Actual Time 7:30 AM CST 4:44 PM CST
Civil Twilight 6:58 AM CST 5:16 PM CST
Nautical Twilight 6:22 AM CST 5:52 PM CST
Astronomical Twilight 5:48 AM CST 6:26 PM CST
Moon 2:13 PM CST (1/12) 4:28 AM CST (1/12)
Length of Visible Light 10h 18m
Length of Day
9h 14m
Waxing Gibbous, 90% of the Moon is Illuminated
Jan 12
Waxing Gibbous
Jan 15
Full
Jan 23
Last Quarter
Jan 30
New
Feb 6
First Quarter

Hourly Weather History & Observations

Time (CST) Temp. Windchill Dew Point Humidity Pressure Visibility Wind Dir Wind Speed Gust Speed Precip Events Conditions
12:15 AM 26.6 °F 17.5 °F 23.4 °F 88% 29.72 in 10.0 mi WSW 9.2 mph 16.1 mph N/A   Overcast
12:35 AM 26.4 °F 16.0 °F 23.2 °F 88% 29.72 in 10.0 mi WSW 11.5 mph 16.1 mph N/A   Overcast
12:55 AM 26.2 °F 15.8 °F 23.0 °F 88% 29.72 in 7.0 mi West 11.5 mph 17.3 mph N/A   Overcast
1:15 AM 25.9 °F 14.8 °F 23.0 °F 89% 29.72 in 7.0 mi WSW 12.7 mph - N/A   Overcast
1:35 AM 25.7 °F 18.0 °F 23.0 °F 89% 29.73 in 10.0 mi WSW 6.9 mph 10.4 mph N/A   Overcast
1:55 AM 25.7 °F 19.0 °F 22.8 °F 89% 29.72 in 10.0 mi WSW 5.8 mph - N/A   Overcast
2:15 AM 25.3 °F 17.6 °F 22.6 °F 89% 29.72 in 10.0 mi SW 6.9 mph - N/A   Overcast
2:35 AM 25.2 °F 16.5 °F 22.8 °F 91% 29.72 in 10.0 mi SW 8.1 mph - N/A   Overcast
2:55 AM 24.8 °F 14.6 °F 22.6 °F 91% 29.72 in 10.0 mi SW 10.4 mph - N/A   Overcast
3:15 AM 24.8 °F 15.3 °F 22.8 °F 92% 29.72 in 10.0 mi SW 9.2 mph - N/A   Overcast
3:35 AM 24.8 °F 16.1 °F 22.6 °F 91% 29.71 in 10.0 mi SW 8.1 mph - N/A   Mostly Cloudy
3:55 AM 24.8 °F 16.9 °F 22.8 °F 92% 29.71 in 10.0 mi SW 6.9 mph - N/A   Scattered Clouds
4:15 AM 24.6 °F 18.8 °F 22.6 °F 92% 29.71 in 10.0 mi SW 4.6 mph - N/A   Scattered Clouds
4:35 AM 24.1 °F 19.7 °F 22.5 °F 94% 29.70 in 10.0 mi SSW 3.5 mph - N/A   Scattered Clouds
4:55 AM 23.2 °F - 21.7 °F 94% 29.69 in 7.0 mi Calm Calm - N/A   Clear
5:15 AM 21.9 °F 15.7 °F 20.5 °F 94% 29.68 in 7.0 mi South 4.6 mph - N/A   Clear
5:35 AM 23.2 °F - 22.1 °F 96% 29.68 in 7.0 mi Calm Calm - N/A   Clear
5:55 AM 23.0 °F 14.7 °F 21.4 °F 94% 29.67 in 5.0 mi South 6.9 mph - N/A   Clear
6:15 AM 24.6 °F 15.1 °F 23.2 °F 94% 29.67 in 7.0 mi South 9.2 mph - N/A   Clear
6:35 AM 26.2 °F 15.8 °F 23.9 °F 91% 29.65 in 10.0 mi South 11.5 mph - N/A   Mostly Cloudy
6:55 AM 26.6 °F 15.7 °F 24.3 °F 91% 29.67 in 10.0 mi South 12.7 mph - N/A   Overcast
7:15 AM 26.6 °F 14.7 °F 23.9 °F 90% 29.65 in 10.0 mi South 15.0 mph - N/A   Overcast
7:35 AM 27.1 °F 14.5 °F 24.4 °F 90% 29.65 in 10.0 mi South 17.3 mph - N/A   Overcast
7:55 AM 27.3 °F 14.4 °F 24.3 °F 88% 29.65 in 10.0 mi South 18.4 mph - N/A   Mostly Cloudy
8:15 AM 27.5 °F 14.6 °F 24.4 °F 88% 29.64 in 10.0 mi South 18.4 mph 23.0 mph N/A   Scattered Clouds
8:35 AM 28.2 °F 14.5 °F 25.0 °F 88% 29.62 in 10.0 mi South 21.9 mph - N/A   Clear
8:55 AM 29.7 °F 17.4 °F 25.7 °F 85% 29.61 in 10.0 mi South 18.4 mph - N/A   Scattered Clouds
9:15 AM 30.0 °F 18.3 °F 25.7 °F 84% 29.61 in 10.0 mi South 17.3 mph 23.0 mph N/A   Clear
9:35 AM 30.9 °F 18.4 °F 26.2 °F 83% 29.60 in 10.0 mi South 20.7 mph 25.3 mph N/A   Clear
9:55 AM 32.0 °F 20.5 °F 26.4 °F 80% 29.59 in 10.0 mi South 18.4 mph 26.5 mph N/A   Clear
10:15 AM 33.1 °F 22.2 °F 26.2 °F 76% 29.58 in 10.0 mi South 17.3 mph - N/A   Clear
10:35 AM 35.1 °F 24.1 °F 26.2 °F 70% 29.57 in 10.0 mi South 19.6 mph 26.5 mph N/A   Clear
10:55 AM 36.3 °F 25.8 °F 25.9 °F 66% 29.55 in 10.0 mi South 19.6 mph 26.5 mph N/A   Clear
11:15 AM 37.6 °F 28.1 °F 25.3 °F 61% 29.53 in 10.0 mi South 17.3 mph 25.3 mph N/A   Clear
11:55 AM 39.6 °F 30.0 °F 25.5 °F 57% 29.52 in 10.0 mi SSW 19.6 mph 23.0 mph N/A   Clear
12:15 PM 39.2 °F 30.5 °F 25.9 °F 59% 29.50 in 10.0 mi SSW 16.1 mph 21.9 mph N/A   Clear
12:35 PM 39.6 °F 30.6 °F 26.1 °F 58% 29.50 in 10.0 mi SSW 17.3 mph 24.2 mph N/A   Clear
12:55 PM 39.4 °F 30.7 °F 26.2 °F 59% 29.50 in 10.0 mi SSW 16.1 mph 23.0 mph N/A   Clear
1:15 PM 39.4 °F 31.1 °F 26.6 °F 60% 29.49 in 10.0 mi SSW 15.0 mph - N/A   Clear
1:35 PM 40.1 °F 32.0 °F 26.8 °F 59% 29.49 in 10.0 mi SSW 15.0 mph 20.7 mph N/A   Clear
1:55 PM 40.1 °F 32.7 °F 27.1 °F 60% 29.48 in 10.0 mi SSW 12.7 mph - N/A   Scattered Clouds
2:15 PM 40.1 °F 32.0 °F 27.0 °F 59% 29.48 in 10.0 mi SSW 15.0 mph 20.7 mph N/A   Clear
2:35 PM 40.3 °F 32.2 °F 27.0 °F 59% 29.47 in 10.0 mi SSW 15.0 mph 23.0 mph N/A   Scattered Clouds
3:15 PM 40.3 °F 33.4 °F 27.1 °F 59% 29.48 in 10.0 mi SSW 11.5 mph - N/A   Clear
3:35 PM 40.6 °F 33.8 °F 27.1 °F 59% 29.49 in 10.0 mi SW 11.5 mph 18.4 mph N/A   Clear
3:55 PM 39.9 °F 32.5 °F 27.5 °F 61% 29.49 in 10.0 mi SSW 12.7 mph - N/A   Clear
4:15 PM 39.7 °F 34.9 °F 27.5 °F 62% 29.50 in 10.0 mi SW 6.9 mph - N/A   Clear
4:35 PM 39.0 °F 33.4 °F 28.0 °F 65% 29.50 in 10.0 mi SSW 8.1 mph - N/A   Clear
4:55 PM 39.2 °F 33.0 °F 28.0 °F 64% 29.50 in 10.0 mi SSW 9.2 mph - N/A   Clear
5:15 PM 38.7 °F 31.8 °F 28.0 °F 66% 29.50 in 10.0 mi SSW 10.4 mph - N/A   Clear
5:35 PM 37.8 °F 30.7 °F 28.4 °F 69% 29.52 in 10.0 mi SSW 10.4 mph - N/A   Clear
5:55 PM 38.5 °F 32.1 °F 28.4 °F 67% 29.53 in 10.0 mi SW 9.2 mph - N/A   Clear
6:15 PM 37.9 °F 32.1 °F 28.9 °F 70% 29.53 in 10.0 mi SSW 8.1 mph - N/A   Scattered Clouds
6:55 PM 37.6 °F 31.6 °F 29.3 °F 72% 29.52 in 10.0 mi SSW 8.1 mph - N/A   Scattered Clouds
7:15 PM 37.4 °F 30.3 °F 29.3 °F 73% 29.52 in 10.0 mi SSW 10.4 mph - N/A   Clear
7:35 PM 37.2 °F 30.6 °F 29.7 °F 74% 29.52 in 10.0 mi SW 9.2 mph - N/A   Clear
7:55 PM 37.2 °F 31.2 °F 29.7 °F 74% 29.51 in 10.0 mi SSW 8.1 mph - N/A   Clear
8:15 PM 37.8 °F 34.2 °F 29.7 °F 73% 29.51 in 10.0 mi SSW 4.6 mph - N/A   Clear
8:35 PM 37.6 °F 34.0 °F 29.7 °F 73% 29.51 in 10.0 mi SW 4.6 mph - N/A   Clear
8:55 PM 37.2 °F 31.9 °F 29.8 °F 75% 29.52 in 10.0 mi SW 6.9 mph - N/A   Clear
9:15 PM 37.4 °F 33.8 °F 29.8 °F 74% 29.52 in 10.0 mi WSW 4.6 mph - N/A   Mostly Cloudy
9:35 PM 37.6 °F 35.1 °F 30.0 °F 74% 29.52 in 10.0 mi WSW 3.5 mph - N/A   Overcast
9:55 PM 37.4 °F 31.4 °F 30.2 °F 75% 29.51 in 10.0 mi SW 8.1 mph - N/A   Overcast
10:15 PM 37.2 °F 30.6 °F 30.2 °F 76% 29.52 in 10.0 mi SW 9.2 mph - N/A   Overcast
10:35 PM 36.7 °F 30.5 °F 30.2 °F 77% 29.52 in 10.0 mi SW 8.1 mph - N/A   Overcast
10:55 PM 36.9 °F 30.1 °F 30.6 °F 78% 29.51 in 10.0 mi SW 9.2 mph - N/A   Overcast
11:15 PM 36.9 °F 31.4 °F 30.4 °F 77% 29.51 in 10.0 mi SW 6.9 mph - N/A   Overcast
11:35 PM 36.7 °F 31.2 °F 30.6 °F 78% 29.50 in 10.0 mi SW 6.9 mph - N/A   Overcast
11:55 PM 36.5 °F 31.8 °F 30.4 °F 78% 29.50 in 10.0 mi SW 5.8 mph - N/A   Mostly Cloudy